AAL6519 KSAT-KLAX
Flight info
| Callsign | AAL6519 |
|---|---|
| Flight time | 2h 46m |
| Altitude | 34000 |
| Route | ALISS7 ALISS FST ELP J50 SSO J4 WLVRN ESTWD HLYWD1 |
| Aircraft | B738/M-SDE2E3FGHIRWXY/LB1 |
Departure
| Time | 2026-05-07 15:46 |
|---|---|
| Airport | San Antonio International Airport (KSAT) |
Arrival
| Time | 2026-05-07 18:33 |
|---|---|
| Airport | Los Angeles International Airport (KLAX) |
| Time | Latitude | Longitude | Altitude | Speed | Heading |
|---|---|---|---|---|---|
| 2026-05-07 15:36 | 29.52803 | -98.47037 | 789 ft | 0 kts | 187° |
| 2026-05-07 15:38 | 29.52810 | -98.47037 | 789 ft | 4 kts | 191° |
| 2026-05-07 15:39 | 29.52832 | -98.47025 | 790 ft | 4 kts | 236° |
| 2026-05-07 15:39 | 29.52838 | -98.47001 | 789 ft | 1 kts | 279° |
| 2026-05-07 15:39 | 29.52838 | -98.47000 | 789 ft | 0 kts | 279° |
| 2026-05-07 15:42 | 29.52842 | -98.47008 | 790 ft | 3 kts | 306° |
| 2026-05-07 15:42 | 29.52874 | -98.47004 | 790 ft | 7 kts | 40° |
| 2026-05-07 15:42 | 29.52875 | -98.46944 | 788 ft | 10 kts | 125° |
| 2026-05-07 15:43 | 29.52827 | -98.46880 | 787 ft | 11 kts | 131° |
| 2026-05-07 15:43 | 29.52775 | -98.46813 | 787 ft | 11 kts | 132° |
| 2026-05-07 15:43 | 29.52722 | -98.46791 | 787 ft | 8 kts | 201° |
| 2026-05-07 15:43 | 29.52676 | -98.46831 | 787 ft | 9 kts | 221° |
| 2026-05-07 15:44 | 29.52617 | -98.46890 | 785 ft | 14 kts | 220° |
| 2026-05-07 15:44 | 29.52531 | -98.46966 | 783 ft | 17 kts | 214° |
| 2026-05-07 15:44 | 29.52446 | -98.47048 | 783 ft | 15 kts | 212° |
| 2026-05-07 15:44 | 29.52373 | -98.47031 | 782 ft | 8 kts | 133° |
| 2026-05-07 15:45 | 29.52343 | -98.46983 | 781 ft | 7 kts | 104° |
| 2026-05-07 15:45 | 29.52363 | -98.46953 | 782 ft | 0 kts | 38° |
| 2026-05-07 15:45 | 29.52365 | -98.46951 | 782 ft | 4 kts | 38° |
| 2026-05-07 15:45 | 29.52547 | -98.46771 | 785 ft | 74 kts | 40° |
| 2026-05-07 15:46 | 29.54022 | -98.45327 | 1417 ft | 167 kts | 37° |
| 2026-05-07 15:46 | 29.54958 | -98.44546 | 2478 ft | 170 kts | 33° |
| 2026-05-07 15:46 | 29.55961 | -98.43745 | 3205 ft | 184 kts | 29° |
| 2026-05-07 15:47 | 29.57290 | -98.43534 | 3415 ft | 215 kts | 348° |
| 2026-05-07 15:47 | 29.58569 | -98.44580 | 3768 ft | 240 kts | 311° |
| 2026-05-07 15:47 | 29.59584 | -98.46143 | 4368 ft | 249 kts | 311° |
| 2026-05-07 15:47 | 29.60721 | -98.47722 | 4774 ft | 268 kts | 314° |
| 2026-05-07 15:48 | 29.61998 | -98.49308 | 5568 ft | 274 kts | 314° |
| 2026-05-07 15:48 | 29.63307 | -98.50944 | 6417 ft | 278 kts | 313° |
| 2026-05-07 15:48 | 29.64616 | -98.52605 | 7217 ft | 283 kts | 312° |
| 2026-05-07 15:48 | 29.65955 | -98.54310 | 8000 ft | 289 kts | 312° |
| 2026-05-07 15:49 | 29.67315 | -98.56041 | 8754 ft | 294 kts | 312° |
| 2026-05-07 15:49 | 29.68683 | -98.57781 | 9469 ft | 299 kts | 311° |
| 2026-05-07 15:49 | 29.70092 | -98.59573 | 10210 ft | 303 kts | 310° |
| 2026-05-07 15:49 | 29.71547 | -98.61424 | 10565 ft | 323 kts | 309° |
| 2026-05-07 15:50 | 29.73098 | -98.63400 | 10881 ft | 340 kts | 309° |
| 2026-05-07 15:50 | 29.74697 | -98.65434 | 11573 ft | 343 kts | 309° |
| 2026-05-07 15:50 | 29.76307 | -98.67477 | 12314 ft | 345 kts | 308° |
| 2026-05-07 15:50 | 29.77921 | -98.69528 | 13061 ft | 347 kts | 308° |
| 2026-05-07 15:51 | 29.79553 | -98.71603 | 13714 ft | 352 kts | 308° |
| 2026-05-07 15:51 | 29.81204 | -98.73704 | 14371 ft | 355 kts | 307° |
| 2026-05-07 15:51 | 29.82870 | -98.75826 | 15025 ft | 358 kts | 307° |
| 2026-05-07 15:51 | 29.84550 | -98.77967 | 15682 ft | 361 kts | 307° |
| 2026-05-07 15:52 | 29.85671 | -98.79395 | 16085 ft | 364 kts | 306° |
| 2026-05-07 15:52 | 29.87374 | -98.81567 | 16712 ft | 367 kts | 306° |
| 2026-05-07 15:52 | 29.89091 | -98.83756 | 17363 ft | 369 kts | 306° |
| 2026-05-07 15:52 | 29.90813 | -98.85954 | 17968 ft | 371 kts | 306° |
| 2026-05-07 15:53 | 29.92554 | -98.88179 | 18550 ft | 375 kts | 306° |
| 2026-05-07 15:53 | 29.94311 | -98.90424 | 19159 ft | 377 kts | 306° |
| 2026-05-07 15:53 | 29.96072 | -98.92676 | 19725 ft | 380 kts | 306° |
| 2026-05-07 15:53 | 29.97846 | -98.94946 | 20275 ft | 382 kts | 306° |
| 2026-05-07 15:54 | 29.99635 | -98.97235 | 20806 ft | 385 kts | 306° |
| 2026-05-07 15:54 | 30.01439 | -98.99546 | 21337 ft | 387 kts | 306° |
| 2026-05-07 15:54 | 30.03214 | -99.01819 | 21992 ft | 385 kts | 306° |
| 2026-05-07 15:54 | 30.05006 | -99.04116 | 22502 ft | 387 kts | 306° |
| 2026-05-07 15:55 | 30.06822 | -99.06446 | 22920 ft | 391 kts | 306° |
| 2026-05-07 15:55 | 30.08646 | -99.08790 | 23336 ft | 394 kts | 305° |
| 2026-05-07 15:55 | 30.10298 | -99.11304 | 23775 ft | 389 kts | 296° |
| 2026-05-07 15:55 | 30.11575 | -99.14055 | 24219 ft | 386 kts | 289° |
| 2026-05-07 15:56 | 30.12485 | -99.16958 | 24624 ft | 384 kts | 281° |
| 2026-05-07 15:56 | 30.13188 | -99.19947 | 24992 ft | 386 kts | 281° |
| 2026-05-07 15:56 | 30.13875 | -99.22958 | 25398 ft | 388 kts | 280° |
| 2026-05-07 15:56 | 30.14560 | -99.25976 | 25832 ft | 389 kts | 280° |
| 2026-05-07 15:57 | 30.15248 | -99.28999 | 26229 ft | 390 kts | 280° |
| 2026-05-07 15:57 | 30.15945 | -99.32042 | 26574 ft | 392 kts | 280° |
| 2026-05-07 15:57 | 30.16647 | -99.35096 | 26932 ft | 394 kts | 280° |
| 2026-05-07 15:57 | 30.17347 | -99.38129 | 27265 ft | 396 kts | 280° |
| 2026-05-07 15:58 | 30.18060 | -99.41214 | 27592 ft | 398 kts | 280° |
| 2026-05-07 15:58 | 30.18776 | -99.44306 | 27912 ft | 400 kts | 280° |
| 2026-05-07 15:58 | 30.19498 | -99.47423 | 28206 ft | 402 kts | 280° |
| 2026-05-07 15:58 | 30.20221 | -99.50555 | 28511 ft | 403 kts | 280° |
| 2026-05-07 15:59 | 30.20946 | -99.53690 | 28878 ft | 403 kts | 279° |
| 2026-05-07 15:59 | 30.21667 | -99.56812 | 29394 ft | 399 kts | 279° |
| 2026-05-07 15:59 | 30.22380 | -99.59898 | 29916 ft | 396 kts | 279° |
| 2026-05-07 15:59 | 30.23088 | -99.62967 | 30314 ft | 395 kts | 279° |
| 2026-05-07 16:00 | 30.23792 | -99.66035 | 30714 ft | 394 kts | 279° |
| 2026-05-07 16:00 | 30.24496 | -99.69097 | 31138 ft | 392 kts | 279° |
| 2026-05-07 16:00 | 30.25195 | -99.72140 | 31558 ft | 390 kts | 278° |
| 2026-05-07 16:00 | 30.25888 | -99.75168 | 31957 ft | 389 kts | 278° |
| 2026-05-07 16:01 | 30.26569 | -99.78148 | 32301 ft | 388 kts | 278° |
| 2026-05-07 16:01 | 30.27257 | -99.81160 | 32696 ft | 386 kts | 278° |
| 2026-05-07 16:01 | 30.27941 | -99.84158 | 33116 ft | 384 kts | 278° |
| 2026-05-07 16:01 | 30.28622 | -99.87142 | 33493 ft | 382 kts | 277° |
| 2026-05-07 16:02 | 30.29300 | -99.90120 | 33758 ft | 382 kts | 277° |
| 2026-05-07 16:02 | 30.29977 | -99.93103 | 34028 ft | 383 kts | 277° |
| 2026-05-07 16:02 | 30.30648 | -99.96057 | 34168 ft | 383 kts | 277° |
| 2026-05-07 16:03 | 30.32001 | -100.02026 | 34168 ft | 383 kts | 277° |
| 2026-05-07 16:03 | 30.33348 | -100.07974 | 34176 ft | 381 kts | 277° |
| 2026-05-07 16:04 | 30.34675 | -100.13855 | 34175 ft | 379 kts | 277° |
| 2026-05-07 16:04 | 30.36007 | -100.19764 | 34175 ft | 378 kts | 277° |
| 2026-05-07 16:05 | 30.37332 | -100.25663 | 34174 ft | 378 kts | 277° |
| 2026-05-07 16:05 | 30.38654 | -100.31562 | 34182 ft | 378 kts | 277° |
| 2026-05-07 16:06 | 30.39977 | -100.37467 | 34172 ft | 379 kts | 277° |
| 2026-05-07 16:06 | 30.41296 | -100.43384 | 34178 ft | 379 kts | 277° |
| 2026-05-07 16:07 | 30.42612 | -100.49292 | 34187 ft | 379 kts | 277° |
| 2026-05-07 16:07 | 30.43920 | -100.55184 | 34185 ft | 380 kts | 277° |
| 2026-05-07 16:08 | 30.45240 | -100.61135 | 34187 ft | 381 kts | 277° |
| 2026-05-07 16:08 | 30.46561 | -100.67101 | 34195 ft | 382 kts | 277° |
| 2026-05-07 16:09 | 30.47879 | -100.73078 | 34195 ft | 383 kts | 276° |
| 2026-05-07 16:09 | 30.49192 | -100.79054 | 34191 ft | 383 kts | 276° |
| 2026-05-07 16:10 | 30.50502 | -100.85011 | 34188 ft | 383 kts | 276° |
| 2026-05-07 16:10 | 30.51814 | -100.90993 | 34184 ft | 384 kts | 276° |
| 2026-05-07 16:11 | 30.53127 | -100.96996 | 34180 ft | 383 kts | 276° |
| 2026-05-07 16:11 | 30.54436 | -101.03003 | 34185 ft | 383 kts | 276° |
| 2026-05-07 16:12 | 30.55741 | -101.09008 | 34184 ft | 383 kts | 276° |
| 2026-05-07 16:12 | 30.57036 | -101.14969 | 34184 ft | 383 kts | 276° |
| 2026-05-07 16:13 | 30.58335 | -101.20969 | 34183 ft | 383 kts | 276° |
| 2026-05-07 16:13 | 30.59634 | -101.26976 | 34179 ft | 384 kts | 276° |
| 2026-05-07 16:14 | 30.60929 | -101.32984 | 34184 ft | 384 kts | 276° |
| 2026-05-07 16:14 | 30.62223 | -101.39002 | 34187 ft | 384 kts | 276° |
| 2026-05-07 16:15 | 30.63513 | -101.45021 | 34182 ft | 384 kts | 276° |
| 2026-05-07 16:15 | 30.64796 | -101.51014 | 34178 ft | 384 kts | 276° |
| 2026-05-07 16:16 | 30.66085 | -101.57037 | 34183 ft | 385 kts | 276° |
| 2026-05-07 16:16 | 30.67370 | -101.63078 | 34186 ft | 385 kts | 276° |
| 2026-05-07 16:17 | 30.68652 | -101.69125 | 34185 ft | 386 kts | 276° |
| 2026-05-07 16:17 | 30.69936 | -101.75193 | 34182 ft | 387 kts | 276° |
| 2026-05-07 16:18 | 30.71221 | -101.81276 | 34183 ft | 387 kts | 276° |
| 2026-05-07 16:18 | 30.72505 | -101.87359 | 34181 ft | 387 kts | 276° |
| 2026-05-07 16:19 | 30.73777 | -101.93399 | 34177 ft | 386 kts | 276° |
| 2026-05-07 16:19 | 30.75050 | -101.99461 | 34192 ft | 385 kts | 276° |
| 2026-05-07 16:20 | 30.76316 | -102.05511 | 34186 ft | 385 kts | 275° |
| 2026-05-07 16:20 | 30.77583 | -102.11575 | 34186 ft | 386 kts | 275° |
| 2026-05-07 16:21 | 30.78845 | -102.17639 | 34183 ft | 386 kts | 275° |
| 2026-05-07 16:21 | 30.80104 | -102.23706 | 34183 ft | 386 kts | 275° |
| 2026-05-07 16:22 | 30.81353 | -102.29733 | 34189 ft | 386 kts | 275° |
| 2026-05-07 16:22 | 30.82608 | -102.35803 | 34198 ft | 385 kts | 275° |
| 2026-05-07 16:23 | 30.83858 | -102.41868 | 34190 ft | 385 kts | 275° |
| 2026-05-07 16:23 | 30.85104 | -102.47932 | 34193 ft | 385 kts | 275° |
| 2026-05-07 16:24 | 30.86347 | -102.53989 | 34194 ft | 384 kts | 275° |
| 2026-05-07 16:24 | 30.87588 | -102.60044 | 34200 ft | 384 kts | 275° |
| 2026-05-07 16:25 | 30.88821 | -102.66092 | 34192 ft | 384 kts | 275° |
| 2026-05-07 16:25 | 30.90043 | -102.72092 | 34191 ft | 383 kts | 275° |
| 2026-05-07 16:26 | 30.91269 | -102.78129 | 34196 ft | 382 kts | 275° |
| 2026-05-07 16:26 | 30.92487 | -102.84147 | 34187 ft | 382 kts | 275° |
| 2026-05-07 16:27 | 30.93701 | -102.90154 | 34194 ft | 381 kts | 275° |
| 2026-05-07 16:27 | 30.94912 | -102.96161 | 34198 ft | 380 kts | 274° |
| 2026-05-07 16:28 | 30.96388 | -103.02119 | 34196 ft | 384 kts | 278° |
| 2026-05-07 16:28 | 30.98044 | -103.08038 | 34194 ft | 384 kts | 278° |
| 2026-05-07 16:29 | 30.99687 | -103.13914 | 34197 ft | 384 kts | 278° |
| 2026-05-07 16:29 | 31.01325 | -103.19829 | 34198 ft | 383 kts | 278° |
| 2026-05-07 16:30 | 31.02952 | -103.25750 | 34199 ft | 383 kts | 278° |
| 2026-05-07 16:30 | 31.04576 | -103.31684 | 34201 ft | 383 kts | 278° |
| 2026-05-07 16:31 | 31.06195 | -103.37609 | 34203 ft | 383 kts | 278° |
| 2026-05-07 16:31 | 31.07803 | -103.43507 | 34225 ft | 383 kts | 278° |
| 2026-05-07 16:32 | 31.09419 | -103.49446 | 34209 ft | 383 kts | 278° |
| 2026-05-07 16:32 | 31.11029 | -103.55375 | 34212 ft | 384 kts | 278° |
| 2026-05-07 16:33 | 31.12638 | -103.61312 | 34214 ft | 384 kts | 278° |
| 2026-05-07 16:33 | 31.14245 | -103.67258 | 34204 ft | 384 kts | 278° |
| 2026-05-07 16:34 | 31.15849 | -103.73202 | 34213 ft | 384 kts | 278° |
| 2026-05-07 16:34 | 31.17451 | -103.79147 | 34229 ft | 384 kts | 278° |
| 2026-05-07 16:35 | 31.19048 | -103.85093 | 34224 ft | 384 kts | 278° |
| 2026-05-07 16:35 | 31.20636 | -103.91013 | 34219 ft | 384 kts | 278° |
| 2026-05-07 16:36 | 31.22230 | -103.96962 | 34217 ft | 383 kts | 278° |
| 2026-05-07 16:36 | 31.23821 | -104.02918 | 34219 ft | 383 kts | 278° |
| 2026-05-07 16:37 | 31.25404 | -104.08858 | 34200 ft | 383 kts | 278° |
| 2026-05-07 16:37 | 31.26975 | -104.14762 | 34208 ft | 383 kts | 277° |
| 2026-05-07 16:38 | 31.28552 | -104.20706 | 34201 ft | 383 kts | 277° |
| 2026-05-07 16:38 | 31.30135 | -104.26675 | 34212 ft | 383 kts | 278° |
| 2026-05-07 16:39 | 31.31697 | -104.32586 | 34197 ft | 383 kts | 277° |
| 2026-05-07 16:39 | 31.33269 | -104.38547 | 34211 ft | 383 kts | 277° |
| 2026-05-07 16:40 | 31.34839 | -104.44509 | 34217 ft | 384 kts | 277° |
| 2026-05-07 16:40 | 31.36144 | -104.49474 | 34205 ft | 384 kts | 277° |
| 2026-05-07 16:41 | 31.37712 | -104.55452 | 34194 ft | 384 kts | 277° |
| 2026-05-07 16:41 | 31.39278 | -104.61432 | 34191 ft | 384 kts | 277° |
| 2026-05-07 16:42 | 31.40839 | -104.67409 | 34216 ft | 384 kts | 277° |
| 2026-05-07 16:42 | 31.42399 | -104.73396 | 34198 ft | 384 kts | 277° |
| 2026-05-07 16:43 | 31.43959 | -104.79390 | 34192 ft | 384 kts | 277° |
| 2026-05-07 16:43 | 31.45504 | -104.85348 | 34192 ft | 384 kts | 277° |
| 2026-05-07 16:44 | 31.47058 | -104.91333 | 34184 ft | 382 kts | 278° |
| 2026-05-07 16:44 | 31.48597 | -104.97286 | 34196 ft | 382 kts | 277° |
| 2026-05-07 16:45 | 31.50130 | -105.03245 | 34187 ft | 383 kts | 277° |
| 2026-05-07 16:45 | 31.51660 | -105.09198 | 34183 ft | 384 kts | 277° |
| 2026-05-07 16:46 | 31.53202 | -105.15205 | 34175 ft | 385 kts | 277° |
| 2026-05-07 16:46 | 31.54745 | -105.21226 | 34171 ft | 386 kts | 277° |
| 2026-05-07 16:47 | 31.56290 | -105.27268 | 34162 ft | 387 kts | 278° |
| 2026-05-07 16:47 | 31.57832 | -105.33306 | 34164 ft | 386 kts | 277° |
| 2026-05-07 16:48 | 31.59370 | -105.39352 | 34157 ft | 386 kts | 277° |
| 2026-05-07 16:48 | 31.60905 | -105.45394 | 34153 ft | 386 kts | 277° |
| 2026-05-07 16:49 | 31.62433 | -105.51424 | 34158 ft | 385 kts | 277° |
| 2026-05-07 16:49 | 31.63961 | -105.57465 | 34150 ft | 385 kts | 277° |
| 2026-05-07 16:50 | 31.65471 | -105.63451 | 34152 ft | 385 kts | 277° |
| 2026-05-07 16:50 | 31.66992 | -105.69494 | 34152 ft | 385 kts | 277° |
| 2026-05-07 16:51 | 31.68510 | -105.75536 | 34145 ft | 386 kts | 277° |
| 2026-05-07 16:51 | 31.70025 | -105.81578 | 34146 ft | 386 kts | 277° |
| 2026-05-07 16:52 | 31.71541 | -105.87637 | 34139 ft | 387 kts | 277° |
| 2026-05-07 16:52 | 31.73054 | -105.93699 | 34133 ft | 387 kts | 277° |
| 2026-05-07 16:53 | 31.74566 | -105.99772 | 34130 ft | 387 kts | 277° |
| 2026-05-07 16:53 | 31.76077 | -106.05852 | 34137 ft | 387 kts | 277° |
| 2026-05-07 16:54 | 31.77574 | -106.11890 | 34145 ft | 387 kts | 277° |
| 2026-05-07 16:54 | 31.79077 | -106.17965 | 34151 ft | 387 kts | 277° |
| 2026-05-07 16:55 | 31.80576 | -106.24039 | 34157 ft | 386 kts | 277° |
| 2026-05-07 16:55 | 31.81802 | -106.30129 | 34146 ft | 376 kts | 268° |
| 2026-05-07 16:56 | 31.82239 | -106.36228 | 34158 ft | 374 kts | 267° |
| 2026-05-07 16:56 | 31.82897 | -106.45352 | 34155 ft | 375 kts | 267° |
| 2026-05-07 16:57 | 31.83366 | -106.51444 | 34178 ft | 373 kts | 268° |
| 2026-05-07 16:57 | 31.83808 | -106.57551 | 34168 ft | 376 kts | 267° |
| 2026-05-07 16:58 | 31.84252 | -106.63700 | 34156 ft | 377 kts | 268° |
| 2026-05-07 16:58 | 31.84699 | -106.69855 | 34156 ft | 379 kts | 267° |
| 2026-05-07 16:59 | 31.85144 | -106.76015 | 34157 ft | 380 kts | 267° |
| 2026-05-07 16:59 | 31.85592 | -106.82214 | 34157 ft | 381 kts | 267° |
| 2026-05-07 17:00 | 31.86037 | -106.88434 | 34157 ft | 381 kts | 267° |
| 2026-05-07 17:00 | 31.86479 | -106.94647 | 34157 ft | 381 kts | 267° |
| 2026-05-07 17:01 | 31.86916 | -107.00846 | 34155 ft | 380 kts | 267° |
| 2026-05-07 17:01 | 31.87351 | -107.07042 | 34155 ft | 380 kts | 267° |
| 2026-05-07 17:02 | 31.87779 | -107.13194 | 34156 ft | 379 kts | 267° |
| 2026-05-07 17:02 | 31.88206 | -107.19375 | 34157 ft | 379 kts | 267° |
| 2026-05-07 17:03 | 31.88630 | -107.25550 | 34162 ft | 379 kts | 267° |
| 2026-05-07 17:03 | 31.89051 | -107.31724 | 34169 ft | 378 kts | 267° |
| 2026-05-07 17:04 | 31.89468 | -107.37895 | 34167 ft | 378 kts | 267° |
| 2026-05-07 17:04 | 31.89881 | -107.44064 | 34157 ft | 378 kts | 267° |
| 2026-05-07 17:05 | 31.90293 | -107.50239 | 34155 ft | 378 kts | 266° |
| 2026-05-07 17:05 | 31.90702 | -107.56424 | 34158 ft | 379 kts | 266° |
| 2026-05-07 17:06 | 31.91108 | -107.62610 | 34157 ft | 379 kts | 266° |
| 2026-05-07 17:06 | 31.91509 | -107.68756 | 34156 ft | 380 kts | 266° |
| 2026-05-07 17:07 | 31.91907 | -107.74946 | 34163 ft | 379 kts | 267° |
| 2026-05-07 17:07 | 31.92818 | -107.81136 | 34164 ft | 390 kts | 277° |
| 2026-05-07 17:08 | 31.94333 | -107.87300 | 34157 ft | 392 kts | 277° |
| 2026-05-07 17:08 | 31.95837 | -107.93480 | 34157 ft | 392 kts | 277° |
| 2026-05-07 17:09 | 31.97316 | -107.99615 | 34155 ft | 392 kts | 277° |
| 2026-05-07 17:09 | 31.98792 | -108.05783 | 34156 ft | 391 kts | 277° |
| 2026-05-07 17:10 | 32.00261 | -108.11939 | 34158 ft | 389 kts | 277° |
| 2026-05-07 17:10 | 32.01723 | -108.18081 | 34157 ft | 389 kts | 277° |
| 2026-05-07 17:11 | 32.03183 | -108.24230 | 34141 ft | 389 kts | 277° |
| 2026-05-07 17:11 | 32.04639 | -108.30389 | 34140 ft | 389 kts | 277° |
| 2026-05-07 17:12 | 32.06079 | -108.36490 | 34149 ft | 390 kts | 277° |
| 2026-05-07 17:12 | 32.07532 | -108.42659 | 34148 ft | 390 kts | 277° |
| 2026-05-07 17:13 | 32.08981 | -108.48828 | 34144 ft | 391 kts | 277° |
| 2026-05-07 17:13 | 32.10431 | -108.55012 | 34153 ft | 391 kts | 277° |
| 2026-05-07 17:14 | 32.11885 | -108.61222 | 34143 ft | 392 kts | 277° |
| 2026-05-07 17:14 | 32.13327 | -108.67403 | 34136 ft | 393 kts | 277° |
| 2026-05-07 17:15 | 32.14778 | -108.73635 | 34142 ft | 394 kts | 277° |
| 2026-05-07 17:15 | 32.16230 | -108.79886 | 34137 ft | 395 kts | 277° |
| 2026-05-07 17:16 | 32.17683 | -108.86161 | 34139 ft | 397 kts | 277° |
| 2026-05-07 17:16 | 32.19132 | -108.92428 | 34137 ft | 398 kts | 277° |
| 2026-05-07 17:17 | 32.20591 | -108.98754 | 34130 ft | 399 kts | 277° |
| 2026-05-07 17:17 | 32.22049 | -109.05087 | 34133 ft | 400 kts | 277° |
| 2026-05-07 17:18 | 32.23504 | -109.11436 | 34130 ft | 401 kts | 277° |
| 2026-05-07 17:18 | 32.24964 | -109.17816 | 34131 ft | 402 kts | 277° |
| 2026-05-07 17:19 | 32.26425 | -109.24210 | 34117 ft | 403 kts | 277° |
| 2026-05-07 17:19 | 32.28247 | -109.30510 | 34126 ft | 410 kts | 284° |
| 2026-05-07 17:20 | 32.30470 | -109.36733 | 34115 ft | 411 kts | 284° |
| 2026-05-07 17:20 | 32.32704 | -109.42956 | 34121 ft | 410 kts | 284° |
| 2026-05-07 17:21 | 32.34901 | -109.49178 | 34110 ft | 410 kts | 284° |
| 2026-05-07 17:21 | 32.37079 | -109.55403 | 34121 ft | 409 kts | 283° |
| 2026-05-07 17:22 | 32.39229 | -109.61587 | 34118 ft | 409 kts | 283° |
| 2026-05-07 17:22 | 32.41398 | -109.67844 | 34104 ft | 410 kts | 283° |
| 2026-05-07 17:23 | 32.43563 | -109.74095 | 34118 ft | 409 kts | 283° |
| 2026-05-07 17:23 | 32.45706 | -109.80298 | 34113 ft | 410 kts | 283° |
| 2026-05-07 17:24 | 32.47864 | -109.86552 | 34111 ft | 410 kts | 283° |
| 2026-05-07 17:24 | 32.50018 | -109.92810 | 34111 ft | 411 kts | 283° |
| 2026-05-07 17:25 | 32.52176 | -109.99084 | 34120 ft | 410 kts | 283° |
| 2026-05-07 17:25 | 32.54325 | -110.05350 | 34103 ft | 411 kts | 284° |
| 2026-05-07 17:26 | 32.56478 | -110.11643 | 34115 ft | 412 kts | 284° |
| 2026-05-07 17:26 | 32.58632 | -110.17946 | 34114 ft | 413 kts | 284° |
| 2026-05-07 17:27 | 32.60428 | -110.23209 | 34113 ft | 415 kts | 285° |
| 2026-05-07 17:27 | 32.62949 | -110.30626 | 34118 ft | 418 kts | 285° |
| 2026-05-07 17:28 | 32.64769 | -110.35975 | 34120 ft | 421 kts | 285° |
| 2026-05-07 17:28 | 32.66962 | -110.42435 | 34119 ft | 423 kts | 285° |
| 2026-05-07 17:29 | 32.69164 | -110.48939 | 34117 ft | 426 kts | 286° |
| 2026-05-07 17:29 | 32.71373 | -110.55476 | 34122 ft | 426 kts | 286° |
| 2026-05-07 17:30 | 32.73582 | -110.62021 | 34126 ft | 426 kts | 287° |
| 2026-05-07 17:30 | 32.75785 | -110.68569 | 34119 ft | 427 kts | 287° |
| 2026-05-07 17:31 | 32.77983 | -110.75122 | 34119 ft | 426 kts | 287° |
| 2026-05-07 17:31 | 32.80166 | -110.81636 | 34110 ft | 427 kts | 288° |
| 2026-05-07 17:32 | 32.82366 | -110.88215 | 34099 ft | 428 kts | 288° |
| 2026-05-07 17:32 | 32.84567 | -110.94805 | 34084 ft | 429 kts | 288° |
| 2026-05-07 17:33 | 32.86766 | -111.01412 | 34072 ft | 430 kts | 288° |
| 2026-05-07 17:33 | 32.88954 | -111.08000 | 34061 ft | 431 kts | 288° |
| 2026-05-07 17:34 | 32.91160 | -111.14650 | 34050 ft | 433 kts | 289° |
| 2026-05-07 17:34 | 32.93370 | -111.21328 | 34034 ft | 434 kts | 289° |
| 2026-05-07 17:35 | 32.95585 | -111.28030 | 34016 ft | 436 kts | 289° |
| 2026-05-07 17:35 | 32.97798 | -111.34750 | 34010 ft | 437 kts | 289° |
| 2026-05-07 17:36 | 33.00014 | -111.41490 | 34009 ft | 437 kts | 289° |
| 2026-05-07 17:36 | 33.02236 | -111.48263 | 34011 ft | 438 kts | 290° |
| 2026-05-07 17:37 | 33.04438 | -111.54987 | 34013 ft | 438 kts | 290° |
| 2026-05-07 17:37 | 33.06652 | -111.61760 | 34017 ft | 438 kts | 290° |
| 2026-05-07 17:38 | 33.08867 | -111.68555 | 34030 ft | 439 kts | 290° |
| 2026-05-07 17:38 | 33.11076 | -111.75346 | 34015 ft | 439 kts | 290° |
| 2026-05-07 17:39 | 33.13286 | -111.82150 | 34018 ft | 440 kts | 290° |
| 2026-05-07 17:39 | 33.15489 | -111.88954 | 34017 ft | 440 kts | 291° |
| 2026-05-07 17:40 | 33.17677 | -111.95723 | 34014 ft | 440 kts | 291° |
| 2026-05-07 17:40 | 33.19883 | -112.02560 | 34015 ft | 440 kts | 291° |
| 2026-05-07 17:41 | 33.22080 | -112.09394 | 34014 ft | 441 kts | 292° |
| 2026-05-07 17:41 | 33.24279 | -112.16246 | 34015 ft | 442 kts | 293° |
| 2026-05-07 17:42 | 33.26481 | -112.23116 | 34018 ft | 443 kts | 292° |
| 2026-05-07 17:42 | 33.28684 | -112.30006 | 34004 ft | 444 kts | 292° |
| 2026-05-07 17:43 | 33.30883 | -112.36904 | 34000 ft | 444 kts | 293° |
| 2026-05-07 17:43 | 33.33066 | -112.43763 | 34005 ft | 443 kts | 293° |
| 2026-05-07 17:44 | 33.35250 | -112.50643 | 34009 ft | 442 kts | 293° |
| 2026-05-07 17:44 | 33.37426 | -112.57511 | 34007 ft | 441 kts | 293° |
| 2026-05-07 17:45 | 33.39593 | -112.64368 | 34010 ft | 440 kts | 293° |
| 2026-05-07 17:45 | 33.41755 | -112.71223 | 34011 ft | 439 kts | 293° |
| 2026-05-07 17:46 | 33.43907 | -112.78061 | 34009 ft | 439 kts | 293° |
| 2026-05-07 17:46 | 33.46065 | -112.84838 | 34008 ft | 438 kts | 295° |
| 2026-05-07 17:47 | 33.48465 | -112.91529 | 34011 ft | 437 kts | 296° |
| 2026-05-07 17:47 | 33.50911 | -112.98188 | 34002 ft | 437 kts | 296° |
| 2026-05-07 17:48 | 33.53330 | -113.04871 | 33999 ft | 437 kts | 296° |
| 2026-05-07 17:48 | 33.55726 | -113.11562 | 34007 ft | 436 kts | 296° |
| 2026-05-07 17:49 | 33.58110 | -113.18250 | 34010 ft | 435 kts | 296° |
| 2026-05-07 17:49 | 33.60489 | -113.24939 | 34011 ft | 435 kts | 296° |
| 2026-05-07 17:50 | 33.62849 | -113.31584 | 34008 ft | 435 kts | 296° |
| 2026-05-07 17:50 | 33.65216 | -113.38266 | 34011 ft | 435 kts | 296° |
| 2026-05-07 17:51 | 33.67578 | -113.44944 | 34010 ft | 435 kts | 296° |
| 2026-05-07 17:51 | 33.69939 | -113.51632 | 34011 ft | 434 kts | 296° |
| 2026-05-07 17:52 | 33.72291 | -113.58308 | 34031 ft | 433 kts | 296° |
| 2026-05-07 17:52 | 33.74637 | -113.64983 | 34024 ft | 433 kts | 297° |
| 2026-05-07 17:53 | 33.76965 | -113.71622 | 34031 ft | 433 kts | 296° |
| 2026-05-07 17:53 | 33.79314 | -113.78333 | 34024 ft | 432 kts | 296° |
| 2026-05-07 17:54 | 33.81603 | -113.84972 | 34033 ft | 432 kts | 296° |
| 2026-05-07 17:54 | 33.83864 | -113.91677 | 34029 ft | 432 kts | 296° |
| 2026-05-07 17:55 | 33.86119 | -113.98380 | 34020 ft | 432 kts | 296° |
| 2026-05-07 17:55 | 33.88376 | -114.05080 | 34018 ft | 432 kts | 296° |
| 2026-05-07 17:56 | 33.90611 | -114.11793 | 34018 ft | 433 kts | 292° |
| 2026-05-07 17:56 | 33.92005 | -114.18887 | 34019 ft | 437 kts | 284° |
| 2026-05-07 17:57 | 33.92912 | -114.24882 | 34024 ft | 437 kts | 284° |
| 2026-05-07 17:57 | 33.94227 | -114.33232 | 34012 ft | 437 kts | 285° |
| 2026-05-07 17:58 | 33.95420 | -114.40410 | 34007 ft | 437 kts | 285° |
| 2026-05-07 17:58 | 33.96629 | -114.47580 | 34004 ft | 436 kts | 285° |
| 2026-05-07 17:59 | 33.97833 | -114.54752 | 34000 ft | 436 kts | 285° |
| 2026-05-07 17:59 | 33.99030 | -114.61919 | 34003 ft | 436 kts | 285° |
| 2026-05-07 18:00 | 34.00223 | -114.69087 | 34003 ft | 436 kts | 285° |
| 2026-05-07 18:00 | 34.01401 | -114.76199 | 34009 ft | 435 kts | 285° |
| 2026-05-07 18:01 | 34.02581 | -114.83350 | 34008 ft | 434 kts | 285° |
| 2026-05-07 18:01 | 34.03756 | -114.90489 | 34010 ft | 434 kts | 285° |
| 2026-05-07 18:02 | 34.05508 | -115.01187 | 34019 ft | 433 kts | 285° |
| 2026-05-07 18:03 | 34.06670 | -115.08316 | 34016 ft | 433 kts | 285° |
| 2026-05-07 18:03 | 34.07826 | -115.15427 | 34030 ft | 432 kts | 285° |
| 2026-05-07 18:04 | 34.08971 | -115.22496 | 34031 ft | 431 kts | 285° |
| 2026-05-07 18:04 | 34.10117 | -115.29602 | 34037 ft | 430 kts | 285° |
| 2026-05-07 18:05 | 34.11254 | -115.36679 | 34038 ft | 429 kts | 285° |
| 2026-05-07 18:05 | 34.12384 | -115.43737 | 34054 ft | 428 kts | 285° |
| 2026-05-07 18:06 | 34.13509 | -115.50793 | 34053 ft | 427 kts | 285° |
| 2026-05-07 18:06 | 34.14620 | -115.57792 | 34058 ft | 426 kts | 285° |
| 2026-05-07 18:07 | 34.15735 | -115.64821 | 34063 ft | 426 kts | 285° |
| 2026-05-07 18:07 | 34.16264 | -115.71934 | 33955 ft | 430 kts | 268° |
| 2026-05-07 18:07 | 34.15890 | -115.75508 | 33638 ft | 426 kts | 266° |
| 2026-05-07 18:08 | 34.15488 | -115.79029 | 33276 ft | 421 kts | 266° |
| 2026-05-07 18:08 | 34.15103 | -115.82522 | 32910 ft | 417 kts | 267° |
| 2026-05-07 18:08 | 34.14743 | -115.85982 | 32528 ft | 414 kts | 267° |
| 2026-05-07 18:08 | 34.14407 | -115.89382 | 32142 ft | 412 kts | 268° |
| 2026-05-07 18:09 | 34.14075 | -115.92809 | 31745 ft | 411 kts | 267° |
| 2026-05-07 18:09 | 34.13743 | -115.96231 | 31370 ft | 409 kts | 267° |
| 2026-05-07 18:09 | 34.13410 | -115.99630 | 30991 ft | 407 kts | 267° |
| 2026-05-07 18:09 | 34.13077 | -116.03038 | 30500 ft | 409 kts | 267° |
| 2026-05-07 18:10 | 34.12746 | -116.06429 | 30142 ft | 406 kts | 267° |
| 2026-05-07 18:10 | 34.12413 | -116.09812 | 29765 ft | 405 kts | 267° |
| 2026-05-07 18:10 | 34.12079 | -116.13188 | 29380 ft | 403 kts | 267° |
| 2026-05-07 18:10 | 34.11748 | -116.16541 | 28992 ft | 402 kts | 267° |
| 2026-05-07 18:11 | 34.11416 | -116.19897 | 28611 ft | 401 kts | 267° |
| 2026-05-07 18:11 | 34.11197 | -116.22108 | 28353 ft | 400 kts | 267° |
| 2026-05-07 18:11 | 34.10754 | -116.26563 | 27848 ft | 399 kts | 267° |
| 2026-05-07 18:11 | 34.10426 | -116.29842 | 27444 ft | 397 kts | 267° |
| 2026-05-07 18:12 | 34.10084 | -116.33146 | 27082 ft | 396 kts | 266° |
| 2026-05-07 18:12 | 34.09732 | -116.36433 | 26697 ft | 395 kts | 266° |
| 2026-05-07 18:12 | 34.09378 | -116.39711 | 26312 ft | 394 kts | 266° |
| 2026-05-07 18:12 | 34.09025 | -116.42981 | 25936 ft | 392 kts | 266° |
| 2026-05-07 18:13 | 34.08674 | -116.46237 | 25554 ft | 391 kts | 266° |
| 2026-05-07 18:13 | 34.08321 | -116.49544 | 25190 ft | 407 kts | 266° |
| 2026-05-07 18:13 | 34.07952 | -116.53014 | 24808 ft | 427 kts | 266° |
| 2026-05-07 18:13 | 34.07563 | -116.56628 | 24389 ft | 446 kts | 266° |
| 2026-05-07 18:14 | 34.07159 | -116.60405 | 23920 ft | 462 kts | 266° |
| 2026-05-07 18:14 | 34.06788 | -116.64228 | 23390 ft | 455 kts | 266° |
| 2026-05-07 18:14 | 34.06442 | -116.68007 | 22875 ft | 448 kts | 266° |
| 2026-05-07 18:14 | 34.06220 | -116.70463 | 22538 ft | 442 kts | 267° |
| 2026-05-07 18:15 | 34.05778 | -116.75317 | 21949 ft | 431 kts | 266° |
| 2026-05-07 18:15 | 34.05559 | -116.77688 | 21601 ft | 426 kts | 266° |
| 2026-05-07 18:15 | 34.05232 | -116.81209 | 21156 ft | 418 kts | 266° |
| 2026-05-07 18:15 | 34.04907 | -116.84673 | 20709 ft | 412 kts | 266° |
| 2026-05-07 18:16 | 34.04482 | -116.89183 | 20094 ft | 405 kts | 266° |
| 2026-05-07 18:16 | 34.04227 | -116.91443 | 19822 ft | 402 kts | 264° |
| 2026-05-07 18:16 | 34.03785 | -116.94756 | 19368 ft | 398 kts | 263° |
| 2026-05-07 18:16 | 34.03336 | -116.98031 | 18909 ft | 393 kts | 263° |
| 2026-05-07 18:17 | 34.02904 | -117.01264 | 18487 ft | 388 kts | 263° |
| 2026-05-07 18:17 | 34.02489 | -117.04470 | 18045 ft | 385 kts | 264° |
| 2026-05-07 18:17 | 34.02109 | -117.07645 | 17607 ft | 381 kts | 265° |
| 2026-05-07 18:17 | 34.01743 | -117.10795 | 17177 ft | 378 kts | 264° |
| 2026-05-07 18:18 | 34.01381 | -117.13914 | 16750 ft | 375 kts | 264° |
| 2026-05-07 18:18 | 34.01016 | -117.17015 | 16328 ft | 371 kts | 264° |
| 2026-05-07 18:18 | 34.00651 | -117.20088 | 15916 ft | 369 kts | 264° |
| 2026-05-07 18:18 | 34.00291 | -117.23096 | 15505 ft | 366 kts | 264° |
| 2026-05-07 18:19 | 33.99929 | -117.26117 | 15051 ft | 365 kts | 264° |
| 2026-05-07 18:19 | 33.99564 | -117.29138 | 14606 ft | 362 kts | 264° |
| 2026-05-07 18:19 | 33.99206 | -117.32132 | 14187 ft | 359 kts | 263° |
| 2026-05-07 18:19 | 33.98858 | -117.35097 | 13793 ft | 355 kts | 263° |
| 2026-05-07 18:20 | 33.98511 | -117.38026 | 13396 ft | 349 kts | 263° |
| 2026-05-07 18:20 | 33.98177 | -117.40886 | 13006 ft | 340 kts | 263° |
| 2026-05-07 18:20 | 33.97849 | -117.43687 | 12642 ft | 336 kts | 263° |
| 2026-05-07 18:20 | 33.97521 | -117.46472 | 12270 ft | 333 kts | 263° |
| 2026-05-07 18:21 | 33.97204 | -117.49226 | 11916 ft | 330 kts | 265° |
| 2026-05-07 18:21 | 33.97069 | -117.51973 | 11579 ft | 327 kts | 270° |
| 2026-05-07 18:21 | 33.97045 | -117.54698 | 11231 ft | 324 kts | 271° |
| 2026-05-07 18:21 | 33.97046 | -117.57407 | 10892 ft | 321 kts | 271° |
| 2026-05-07 18:22 | 33.97043 | -117.60067 | 10559 ft | 314 kts | 270° |
| 2026-05-07 18:22 | 33.97039 | -117.61790 | 10340 ft | 308 kts | 270° |
| 2026-05-07 18:22 | 33.97010 | -117.65195 | 9922 ft | 298 kts | 270° |
| 2026-05-07 18:22 | 33.96975 | -117.67683 | 9610 ft | 296 kts | 269° |
| 2026-05-07 18:23 | 33.96943 | -117.70148 | 9312 ft | 293 kts | 269° |
| 2026-05-07 18:23 | 33.96918 | -117.72597 | 9021 ft | 291 kts | 269° |
| 2026-05-07 18:23 | 33.96891 | -117.75002 | 8711 ft | 289 kts | 269° |
| 2026-05-07 18:23 | 33.96861 | -117.77417 | 8407 ft | 287 kts | 269° |
| 2026-05-07 18:24 | 33.96828 | -117.79813 | 8105 ft | 285 kts | 269° |
| 2026-05-07 18:24 | 33.96795 | -117.82187 | 7817 ft | 283 kts | 269° |
| 2026-05-07 18:24 | 33.96762 | -117.84548 | 7522 ft | 280 kts | 269° |
| 2026-05-07 18:24 | 33.96728 | -117.86871 | 7226 ft | 274 kts | 269° |
| 2026-05-07 18:25 | 33.96694 | -117.89145 | 6937 ft | 268 kts | 269° |
| 2026-05-07 18:25 | 33.96660 | -117.91361 | 6659 ft | 262 kts | 269° |
| 2026-05-07 18:25 | 33.96628 | -117.93536 | 6387 ft | 256 kts | 269° |
| 2026-05-07 18:25 | 33.96595 | -117.95662 | 6128 ft | 252 kts | 268° |
| 2026-05-07 18:26 | 33.96562 | -117.97756 | 5874 ft | 247 kts | 268° |
| 2026-05-07 18:26 | 33.96529 | -117.99781 | 5614 ft | 242 kts | 268° |
| 2026-05-07 18:26 | 33.96497 | -118.01786 | 5352 ft | 235 kts | 269° |
| 2026-05-07 18:26 | 33.96468 | -118.03730 | 5103 ft | 229 kts | 268° |
| 2026-05-07 18:27 | 33.96436 | -118.05621 | 4885 ft | 222 kts | 268° |
| 2026-05-07 18:27 | 33.96405 | -118.07443 | 4691 ft | 214 kts | 268° |
| 2026-05-07 18:27 | 33.96375 | -118.09214 | 4468 ft | 207 kts | 268° |
| 2026-05-07 18:27 | 33.96345 | -118.10917 | 4245 ft | 200 kts | 268° |
| 2026-05-07 18:28 | 33.96316 | -118.12570 | 4023 ft | 194 kts | 268° |
| 2026-05-07 18:28 | 33.96295 | -118.14188 | 3836 ft | 191 kts | 269° |
| 2026-05-07 18:28 | 33.96244 | -118.15745 | 3713 ft | 184 kts | 265° |
| 2026-05-07 18:28 | 33.96123 | -118.17279 | 3485 ft | 183 kts | 263° |
| 2026-05-07 18:29 | 33.95979 | -118.18780 | 3264 ft | 181 kts | 262° |
| 2026-05-07 18:29 | 33.95825 | -118.20280 | 3018 ft | 180 kts | 262° |
| 2026-05-07 18:29 | 33.95669 | -118.21772 | 2777 ft | 178 kts | 262° |
| 2026-05-07 18:29 | 33.95514 | -118.23245 | 2530 ft | 177 kts | 262° |
| 2026-05-07 18:30 | 33.95362 | -118.24709 | 2307 ft | 175 kts | 262° |
| 2026-05-07 18:30 | 33.95212 | -118.26150 | 2080 ft | 173 kts | 262° |
| 2026-05-07 18:30 | 33.95064 | -118.27576 | 1880 ft | 170 kts | 262° |
| 2026-05-07 18:30 | 33.94916 | -118.29002 | 1628 ft | 171 kts | 262° |
| 2026-05-07 18:31 | 33.94770 | -118.30405 | 1401 ft | 167 kts | 263° |
| 2026-05-07 18:31 | 33.94630 | -118.31763 | 1206 ft | 160 kts | 264° |
| 2026-05-07 18:31 | 33.94495 | -118.33063 | 972 ft | 152 kts | 265° |
| 2026-05-07 18:31 | 33.94368 | -118.34296 | 771 ft | 145 kts | 265° |
| 2026-05-07 18:32 | 33.94246 | -118.35490 | 585 ft | 144 kts | 264° |
| 2026-05-07 18:32 | 33.94124 | -118.36673 | 409 ft | 142 kts | 262° |
| 2026-05-07 18:32 | 33.93997 | -118.37851 | 204 ft | 140 kts | 262° |
| 2026-05-07 18:32 | 33.93883 | -118.38968 | 95 ft | 123 kts | 262° |
| 2026-05-07 18:33 | 33.93813 | -118.39668 | 97 ft | 28 kts | 265° |
| 2026-05-07 18:33 | 33.93810 | -118.39823 | 99 ft | 14 kts | 278° |
| 2026-05-07 18:33 | 33.93840 | -118.39936 | 100 ft | 9 kts | 303° |
| 2026-05-07 18:33 | 33.93842 | -118.39939 | 97 ft | 0 kts | 304° |
| 2026-05-07 18:34 | 33.93851 | -118.39957 | 97 ft | 6 kts | 301° |
| 2026-05-07 18:34 | 33.93887 | -118.40014 | 96 ft | 10 kts | 314° |
| 2026-05-07 18:34 | 33.93942 | -118.40066 | 94 ft | 10 kts | 303° |
| 2026-05-07 18:35 | 33.93947 | -118.40147 | 93 ft | 10 kts | 263° |
| 2026-05-07 18:35 | 33.93939 | -118.40227 | 95 ft | 10 kts | 262° |
| 2026-05-07 18:35 | 33.93930 | -118.40317 | 93 ft | 12 kts | 263° |
| 2026-05-07 18:35 | 33.93919 | -118.40424 | 93 ft | 14 kts | 263° |
| 2026-05-07 18:36 | 33.93907 | -118.40546 | 92 ft | 16 kts | 263° |
| 2026-05-07 18:36 | 33.93892 | -118.40685 | 92 ft | 18 kts | 263° |
| 2026-05-07 18:36 | 33.93876 | -118.40836 | 92 ft | 19 kts | 263° |
| 2026-05-07 18:36 | 33.93860 | -118.40992 | 92 ft | 18 kts | 263° |
| 2026-05-07 18:37 | 33.93849 | -118.41114 | 92 ft | 13 kts | 274° |
| 2026-05-07 18:37 | 33.93910 | -118.41167 | 94 ft | 12 kts | 354° |
| 2026-05-07 18:37 | 33.93989 | -118.41179 | 92 ft | 11 kts | 353° |
| 2026-05-07 18:37 | 33.94073 | -118.41191 | 92 ft | 14 kts | 353° |
| 2026-05-07 18:38 | 33.94179 | -118.41207 | 92 ft | 17 kts | 353° |
| 2026-05-07 18:38 | 33.94294 | -118.41225 | 95 ft | 16 kts | 353° |
| 2026-05-07 18:38 | 33.94405 | -118.41241 | 95 ft | 16 kts | 352° |
| 2026-05-07 18:38 | 33.94512 | -118.41256 | 92 ft | 15 kts | 353° |
| 2026-05-07 18:39 | 33.94614 | -118.41273 | 95 ft | 14 kts | 351° |
| 2026-05-07 18:39 | 33.94694 | -118.41248 | 92 ft | 11 kts | 59° |
| 2026-05-07 18:39 | 33.94718 | -118.41169 | 94 ft | 10 kts | 70° |
| 2026-05-07 18:39 | 33.94730 | -118.41092 | 93 ft | 9 kts | 83° |
| 2026-05-07 18:40 | 33.94739 | -118.41004 | 92 ft | 12 kts | 83° |
| 2026-05-07 18:40 | 33.94749 | -118.40902 | 93 ft | 12 kts | 82° |
| 2026-05-07 18:40 | 33.94753 | -118.40864 | 92 ft | 6 kts | 83° |
| 2026-05-07 18:40 | 33.94759 | -118.40794 | 94 ft | 5 kts | 83° |
| 2026-05-07 18:41 | 33.94763 | -118.40759 | 92 ft | 0 kts | 87° |
| 2026-05-07 18:41 | 33.94763 | -118.40751 | 91 ft | 3 kts | 88° |
| 2026-05-07 18:41 | 33.94740 | -118.40736 | 93 ft | 4 kts | 195° |
| 2026-05-07 18:41 | 33.94712 | -118.40742 | 93 ft | 3 kts | 191° |
| 2026-05-07 18:42 | 33.94710 | -118.40743 | 92 ft | 0 kts | 191° |
| 2026-05-07 19:06 | 33.94711 | -118.40743 | 92 ft | 0 kts | 191° |
| 2026-05-07 19:22 | 33.94711 | -118.40742 | 92 ft | 0 kts | 191° |